Terminal Aerodrome Forecast
Issued by NWS

Home | Current Version | Previous Version | Graphics & Text | Print | Product List | Glossary On
Versions: 1 2 3 4 5 6 7 8 9 10 11 12 13 14 15 16 17 18 19 20
000
FTUS43 KMPX 300915 AAB
TAFRNH
TAF AMD
KRNH 300915Z 3009/0106 VRB04KT 4SM BR SCT005
      TEMPO 3009/3013 1SM BR VV005
     FM301400 02006KT P6SM FEW040 BKN250=

USA.gov is the U.S. government's official web portal to all federal, state and local government web resources and services.